Time;durP1;ratioP1;P1;durP2;ratioP2;P2;SDS_P1;SDS_P2;PMS_P1;PMS_P2;Temp;Humidity;BMP_temperature;BMP_pressure;BME280_temperature;BME280_humidity;BME280_pressure;Samples;Min_cycle;Max_cycle;Signal;HPM_P1;HPM_P2
2021/01/02 00:01:19;;;;;;;24.67;13.05;;;4.80;99.90;;;;;;5054575;28;20037;-93
2021/01/02 00:03:48;;;;;;;17.02;11.60;;;4.80;99.90;;;;;;5046043;28;20040;-91
2021/01/02 00:06:26;;;;;;;23.35;13.65;;;4.80;99.90;;;;;;5046140;28;20052;-92
2021/01/02 00:09:03;;;;;;;26.58;12.27;;;4.80;99.90;;;;;;5045861;28;20048;-91
2021/01/02 00:12:01;;;;;;;23.05;13.35;;;4.80;99.90;;;;;;5052929;28;20044;-93
2021/01/02 00:15:05;;;;;;;22.15;13.27;;;4.80;99.90;;;;;;5069264;28;20048;-95
2021/01/02 00:18:08;;;;;;;28.73;13.30;;;4.80;99.90;;;;;;5070880;28;20032;-95
2021/01/02 00:20:45;;;;;;;25.75;13.07;;;4.80;99.90;;;;;;5054140;28;20056;-94
2021/01/02 00:23:37;;;;;;;25.33;13.30;;;4.80;99.90;;;;;;5062028;28;20056;-95
2021/01/02 00:26:20;;;;;;;23.70;12.90;;;4.80;99.90;;;;;;5069808;28;20040;-93
2021/01/02 00:28:51;;;;;;;23.23;14.27;;;4.80;99.90;;;;;;5070061;28;20063;-94
2021/01/02 00:31:29;;;;;;;25.25;13.85;;;4.80;99.90;;;;;;5039815;28;20044;-93
2021/01/02 00:34:46;;;;;;;25.35;14.68;;;4.80;99.90;;;;;;5040199;28;20140;-94
2021/01/02 00:37:37;;;;;;;33.85;15.02;;;4.80;99.90;;;;;;5036971;28;20044;-94
2021/01/02 00:40:11;;;;;;;26.30;14.52;;;4.80;99.90;;;;;;5041085;28;20477;-94
2021/01/02 00:42:43;;;;;;;21.40;13.60;;;4.80;99.90;;;;;;5052919;28;20492;-94
2021/01/02 00:45:13;;;;;;;21.65;13.82;;;4.80;99.90;;;;;;5057990;28;20045;-95
2021/01/02 00:47:41;;;;;;;25.52;13.93;;;4.80;99.90;;;;;;5046014;28;20125;-92
2021/01/02 00:50:12;;;;;;;26.40;14.60;;;4.80;99.90;;;;;;5038257;28;20044;-94
2021/01/02 00:52:44;;;;;;;26.30;14.55;;;4.80;99.90;;;;;;5047611;28;20147;-94
2021/01/02 00:55:51;;;;;;;29.38;15.32;;;4.70;99.90;;;;;;5050398;28;20041;-94
2021/01/02 00:58:20;;;;;;;22.27;14.25;;;4.70;99.90;;;;;;5047512;28;20071;-94
2021/01/02 01:00:57;;;;;;;25.48;13.13;;;4.80;99.90;;;;;;5050602;28;20041;-93
2021/01/02 01:03:45;;;;;;;25.13;14.95;;;4.80;99.90;;;;;;5068910;28;20036;-93
2021/01/02 01:06:11;;;;;;;26.15;15.00;;;4.70;99.90;;;;;;5069428;28;20044;-94
2021/01/02 01:08:45;;;;;;;29.65;14.93;;;4.70;99.90;;;;;;5069692;28;20085;-93
2021/01/02 01:11:13;;;;;;;22.15;14.20;;;4.60;99.90;;;;;;5069273;28;20106;-93
2021/01/02 01:13:40;;;;;;;24.08;14.57;;;4.60;99.90;;;;;;5043522;28;20071;-94
2021/01/02 01:16:08;;;;;;;23.17;14.05;;;4.70;99.90;;;;;;5048743;28;20051;-95
2021/01/02 01:19:02;;;;;;;23.10;13.80;;;4.70;99.90;;;;;;5045862;28;20053;-95
2021/01/02 01:21:35;;;;;;;21.67;13.85;;;4.70;99.90;;;;;;5070189;28;20393;-95
2021/01/02 01:24:24;;;;;;;27.80;14.43;;;4.80;99.90;;;;;;5065040;28;20036;-94
2021/01/02 01:27:22;;;;;;;25.85;13.45;;;4.70;99.90;;;;;;5053438;28;20055;-94
2021/01/02 01:29:48;;;;;;;24.30;13.82;;;4.60;99.90;;;;;;5070018;28;20036;-95
2021/01/02 01:32:22;;;;;;;27.67;13.68;;;4.70;99.90;;;;;;5069665;28;20586;-94
2021/01/02 01:34:58;;;;;;;25.98;14.93;;;4.90;99.90;;;;;;5036911;28;20049;-94
2021/01/02 01:37:27;;;;;;;24.02;14.32;;;4.70;99.90;;;;;;5060900;28;20124;-94
2021/01/02 01:39:53;;;;;;;23.45;13.95;;;4.70;99.90;;;;;;5047416;28;20396;-94
2021/01/02 01:42:36;;;;;;;21.33;14.10;;;4.70;99.90;;;;;;5068974;28;20051;-94
2021/01/02 01:45:20;;;;;;;21.65;13.15;;;4.70;99.90;;;;;;5069173;28;20045;-94
2021/01/02 01:48:01;;;;;;;24.67;13.80;;;4.60;99.90;;;;;;5069091;28;20478;-93
2021/01/02 01:50:51;;;;;;;20.50;13.40;;;4.60;99.90;;;;;;5069820;28;20520;-94
2021/01/02 01:53:37;;;;;;;22.73;12.70;;;4.70;99.90;;;;;;5052098;28;20072;-95
2021/01/02 01:56:16;;;;;;;19.75;11.60;;;4.70;99.90;;;;;;5064932;28;20037;-94
2021/01/02 01:59:15;;;;;;;21.77;12.30;;;4.60;99.90;;;;;;5073146;28;20053;-95
2021/01/02 02:01:49;;;;;;;20.48;13.02;;;4.60;99.90;;;;;;5073432;28;20036;-95
2021/01/02 02:04:20;;;;;;;21.50;13.38;;;4.60;99.90;;;;;;5056463;28;20134;-93
2021/01/02 02:06:58;;;;;;;22.05;12.77;;;4.60;99.90;;;;;;5056622;28;20052;-95
2021/01/02 02:09:44;;;;;;;23.58;11.50;;;4.70;99.90;;;;;;5072727;28;20037;-94
2021/01/02 02:12:21;;;;;;;19.75;12.88;;;4.70;99.90;;;;;;5056304;28;20060;-95
2021/01/02 02:14:59;;;;;;;22.15;11.85;;;4.80;99.90;;;;;;5043503;28;20036;-95
2021/01/02 02:17:37;;;;;;;19.63;11.88;;;4.60;99.90;;;;;;5073460;28;20052;-95
2021/01/02 02:20:08;;;;;;;18.60;10.77;;;4.70;99.90;;;;;;5073160;28;20511;-94
2021/01/02 02:22:35;;;;;;;;;;;4.70;99.90;;;;;;5073371;28;20053;-94
2021/01/02 02:25:06;;;;;;;18.35;11.02;;;4.70;99.90;;;;;;5055831;28;20337;-95
2021/01/02 02:27:35;;;;;;;15.38;10.98;;;4.70;99.90;;;;;;5072694;28;20434;-94
2021/01/02 02:30:09;;;;;;;18.85;12.40;;;4.70;99.90;;;;;;5072793;28;20052;-96
2021/01/02 02:32:55;;;;;;;23.23;12.05;;;4.70;99.90;;;;;;5056434;28;20133;-94
2021/01/02 02:35:24;;;;;;;23.33;11.60;;;4.70;99.90;;;;;;5044277;28;20044;-94
2021/01/02 02:37:52;;;;;;;23.30;12.13;;;4.60;99.90;;;;;;5071139;28;20103;-91
2021/01/02 02:40:20;;;;;;;21.67;12.45;;;4.70;99.90;;;;;;5053621;28;20340;-93
2021/01/02 02:42:59;;;;;;;22.70;12.93;;;4.70;99.90;;;;;;5071380;28;20131;-94
2021/01/02 02:45:29;;;;;;;21.67;12.52;;;4.70;99.90;;;;;;5075657;28;20044;-95
2021/01/02 02:47:59;;;;;;;24.13;13.85;;;4.60;99.90;;;;;;5072393;28;20036;-94
2021/01/02 02:50:28;;;;;;;23.92;13.85;;;4.70;99.90;;;;;;5042501;28;20533;-95
2021/01/02 02:53:08;;;;;;;21.63;13.43;;;4.60;99.90;;;;;;5073082;28;20040;-95
2021/01/02 02:55:38;;;;;;;21.35;13.48;;;4.70;99.90;;;;;;5072943;28;20063;-95
2021/01/02 02:58:05;;;;;;;30.25;14.02;;;4.70;99.90;;;;;;5044584;28;20056;-95
2021/01/02 03:00:31;;;;;;;19.70;13.57;;;4.60;99.90;;;;;;5039632;28;20109;-94
2021/01/02 03:02:57;;;;;;;22.10;14.27;;;4.70;99.90;;;;;;5038449;28;20049;-95
2021/01/02 03:05:23;;;;;;;25.40;13.80;;;4.80;99.90;;;;;;5072438;28;20040;-95
2021/01/02 03:07:50;;;;;;;25.67;14.35;;;4.60;99.90;;;;;;5071688;28;20029;-95
2021/01/02 03:10:18;;;;;;;23.40;13.10;;;4.60;99.90;;;;;;5070964;28;20037;-95
2021/01/02 03:12:49;;;;;;;25.83;14.18;;;4.50;99.90;;;;;;5071878;28;20116;-94
2021/01/02 03:15:20;;;;;;;22.75;14.32;;;4.50;99.90;;;;;;5055096;28;20041;-94
2021/01/02 03:17:50;;;;;;;24.05;14.07;;;4.40;99.90;;;;;;5054872;28;20523;-94
2021/01/02 03:20:17;;;;;;;24.23;14.13;;;4.40;99.90;;;;;;5069769;28;20040;-94
2021/01/02 03:22:44;;;;;;;25.10;14.02;;;4.30;99.90;;;;;;5067398;28;20044;-94
2021/01/02 03:25:12;;;;;;;21.30;13.70;;;4.30;99.90;;;;;;5070481;28;20046;-94
2021/01/02 03:27:38;;;;;;;26.73;15.00;;;4.20;99.90;;;;;;5071138;28;20025;-94
2021/01/02 03:30:12;;;;;;;21.30;13.05;;;4.20;99.90;;;;;;5072488;28;20520;-94
2021/01/02 03:32:39;;;;;;;25.25;14.52;;;4.10;99.90;;;;;;5059806;28;20037;-93
2021/01/02 03:35:10;;;;;;;31.45;15.43;;;4.00;99.90;;;;;;5065590;28;20086;-93
2021/01/02 03:37:38;;;;;;;26.35;13.48;;;4.10;99.90;;;;;;5047930;28;20047;-94
2021/01/02 03:40:09;;;;;;;28.83;14.35;;;4.00;99.90;;;;;;5051338;28;20390;-95
2021/01/02 03:42:43;;;;;;;22.30;13.82;;;4.00;99.90;;;;;;5084311;28;20041;-95
2021/01/02 03:45:11;;;;;;;26.45;13.95;;;4.00;99.90;;;;;;5069907;28;20508;-94
2021/01/02 03:47:37;;;;;;;25.27;14.15;;;4.00;99.90;;;;;;5072146;28;20427;-94
2021/01/02 03:50:04;;;;;;;24.95;13.05;;;4.00;99.90;;;;;;5054431;28;20045;-95
2021/01/02 03:52:30;;;;;;;22.58;13.13;;;4.00;99.90;;;;;;5070349;28;20044;-95
2021/01/02 03:54:58;;;;;;;23.98;12.98;;;4.00;99.90;;;;;;5069120;28;20476;-95
2021/01/02 03:57:24;;;;;;;25.70;12.80;;;4.00;99.90;;;;;;5047836;28;20048;-95
2021/01/02 03:59:50;;;;;;;21.98;11.63;;;4.00;99.90;;;;;;5059653;28;20048;-94
2021/01/02 04:02:15;;;;;;;18.70;11.60;;;3.90;99.90;;;;;;5070428;28;20086;-94
2021/01/02 04:04:41;;;;;;;18.65;10.68;;;4.00;99.90;;;;;;5070961;28;20048;-96
2021/01/02 04:07:07;;;;;;;22.48;11.68;;;4.10;99.90;;;;;;5052891;28;20033;-93
2021/01/02 04:09:33;;;;;;;22.30;11.70;;;4.00;99.90;;;;;;5049582;28;20071;-95
2021/01/02 04:11:59;;;;;;;29.58;11.55;;;4.00;99.90;;;;;;5070323;28;20040;-95
2021/01/02 04:14:24;;;;;;;22.27;11.70;;;4.00;99.90;;;;;;5069244;28;20428;-95
2021/01/02 04:16:50;;;;;;;21.27;10.75;;;4.00;99.90;;;;;;5020341;28;20055;-93
2021/01/02 04:19:17;;;;;;;18.50;10.43;;;4.00;99.90;;;;;;5070101;28;20046;-94
2021/01/02 04:21:46;;;;;;;16.13;10.68;;;4.00;99.90;;;;;;5069606;28;20111;-92
2021/01/02 04:24:12;;;;;;;19.13;10.00;;;4.20;99.90;;;;;;5070002;28;20528;-93
2021/01/02 04:26:39;;;;;;;17.00;10.75;;;4.10;99.90;;;;;;5036588;28;20040;-94
2021/01/02 04:29:05;;;;;;;20.63;11.13;;;4.10;99.90;;;;;;5070051;28;20059;-94
2021/01/02 04:31:35;;;;;;;27.95;11.43;;;4.10;99.90;;;;;;5052153;28;20086;-95
2021/01/02 04:34:03;;;;;;;19.48;10.93;;;4.10;99.90;;;;;;5069907;28;20059;-95
2021/01/02 04:36:29;;;;;;;20.40;11.88;;;4.10;99.90;;;;;;5069272;28;20068;-96
2021/01/02 04:38:54;;;;;;;18.80;12.70;;;4.10;99.90;;;;;;5044149;28;20071;-96
2021/01/02 04:41:20;;;;;;;21.70;11.68;;;4.10;99.90;;;;;;5066127;28;20545;-94
2021/01/02 04:43:50;;;;;;;15.70;11.38;;;4.20;99.90;;;;;;5054790;28;20036;-95
2021/01/02 04:46:17;;;;;;;19.63;12.07;;;4.20;99.90;;;;;;5070477;28;20040;-95
2021/01/02 04:48:45;;;;;;;22.88;10.85;;;4.20;99.90;;;;;;5053128;28;20044;-96
2021/01/02 04:51:13;;;;;;;27.75;11.38;;;4.30;99.90;;;;;;5069841;28;20044;-94
2021/01/02 04:53:39;;;;;;;22.55;11.15;;;4.20;99.90;;;;;;5048526;28;20063;-95
2021/01/02 04:56:06;;;;;;;18.25;11.13;;;4.20;99.90;;;;;;5066269;28;20045;-94
2021/01/02 04:58:36;;;;;;;21.15;11.48;;;4.20;99.90;;;;;;5058065;28;20136;-96
2021/01/02 05:01:04;;;;;;;23.00;11.50;;;4.20;99.90;;;;;;5056458;28;20048;-95
2021/01/02 05:03:37;;;;;;;19.67;11.35;;;4.20;99.90;;;;;;5061257;28;20037;-93
2021/01/02 05:06:03;;;;;;;18.05;10.73;;;4.20;99.90;;;;;;5042394;28;20129;-95
2021/01/02 05:08:31;;;;;;;18.23;11.05;;;4.40;99.90;;;;;;5065147;28;20047;-96
2021/01/02 05:10:57;;;;;;;21.80;10.43;;;4.20;99.90;;;;;;5070457;28;20404;-96
2021/01/02 05:13:29;;;;;;;20.30;11.48;;;4.10;99.90;;;;;;5070497;28;20083;-95
2021/01/02 05:15:58;;;;;;;23.50;12.57;;;4.10;99.90;;;;;;5069483;28;20047;-96
2021/01/02 05:18:23;;;;;;;30.23;12.95;;;4.00;99.90;;;;;;5052644;28;20028;-96
2021/01/02 05:20:50;;;;;;;20.42;11.27;;;4.00;99.90;;;;;;5020262;28;20060;-95
2021/01/02 05:23:16;;;;;;;26.20;12.48;;;4.00;99.90;;;;;;5036399;28;20094;-94
2021/01/02 05:25:42;;;;;;;20.27;12.30;;;4.00;99.90;;;;;;5069484;28;20036;-94
2021/01/02 05:28:17;;;;;;;25.10;12.45;;;4.00;99.90;;;;;;5069326;28;20067;-94
2021/01/02 05:30:43;;;;;;;19.70;11.55;;;4.00;99.90;;;;;;5053596;28;20053;-94
2021/01/02 05:33:13;;;;;;;20.23;11.68;;;4.00;99.90;;;;;;5073487;28;20071;-94
2021/01/02 05:35:44;;;;;;;21.17;12.27;;;3.90;99.90;;;;;;5056695;28;20572;-93
2021/01/02 05:38:11;;;;;;;23.75;12.98;;;3.90;99.90;;;;;;5040293;28;20044;-95
2021/01/02 05:40:39;;;;;;;22.55;12.38;;;4.10;99.90;;;;;;5039599;28;20044;-93
2021/01/02 05:43:05;;;;;;;25.75;12.15;;;4.10;99.90;;;;;;5073346;28;20048;-94
2021/01/02 05:45:32;;;;;;;28.23;14.45;;;4.00;99.90;;;;;;5056536;28;20397;-96
2021/01/02 05:48:13;;;;;;;24.13;13.45;;;3.80;99.90;;;;;;5057066;28;20070;-96
2021/01/02 05:50:56;;;;;;;26.65;13.38;;;3.80;99.90;;;;;;5073717;28;20055;-96
2021/01/02 05:53:27;;;;;;;31.42;14.27;;;3.80;99.90;;;;;;5039955;28;20135;-95
2021/01/02 05:56:13;;;;;;;27.92;13.75;;;3.80;99.90;;;;;;5074473;28;20036;-94
2021/01/02 05:58:41;;;;;;;30.20;13.93;;;3.80;99.90;;;;;;5072997;28;20397;-94
2021/01/02 06:01:14;;;;;;;29.77;13.60;;;3.70;99.90;;;;;;5073837;28;20995;-95
2021/01/02 06:03:45;;;;;;;24.13;13.57;;;3.70;99.90;;;;;;5073321;28;20041;-95
2021/01/02 06:06:14;;;;;;;22.23;13.77;;;3.70;99.90;;;;;;5053670;28;20044;-94
2021/01/02 06:08:43;;;;;;;35.28;14.95;;;3.80;99.90;;;;;;5053067;28;20060;-94
2021/01/02 06:11:12;;;;;;;39.50;15.68;;;3.70;99.90;;;;;;5073023;28;20120;-95
2021/01/02 06:13:40;;;;;;;31.00;15.17;;;3.60;99.90;;;;;;5073445;28;20580;-96
2021/01/02 06:16:08;;;;;;;31.73;15.10;;;3.60;99.90;;;;;;5074425;28;20056;-96
2021/01/02 06:18:39;;;;;;;31.65;15.55;;;3.60;99.90;;;;;;5073991;28;20044;-96
2021/01/02 06:21:16;;;;;;;32.55;15.55;;;3.40;99.90;;;;;;5074196;28;20086;-96
2021/01/02 06:23:44;;;;;;;28.08;14.52;;;3.50;99.90;;;;;;5073097;28;20068;-96
2021/01/02 06:26:11;;;;;;;31.63;14.93;;;3.50;99.90;;;;;;5073898;28;20789;-95
2021/01/02 06:28:39;;;;;;;28.17;14.77;;;3.50;99.90;;;;;;5072993;28;20381;-94
2021/01/02 06:31:16;;;;;;;33.75;15.10;;;3.80;99.90;;;;;;5073172;28;20048;-96
2021/01/02 06:34:05;;;;;;;31.08;14.70;;;3.50;99.90;;;;;;5073030;28;20035;-95
2021/01/02 06:36:36;;;;;;;41.38;16.77;;;3.50;99.90;;;;;;5056545;28;20058;-96
2021/01/02 06:39:20;;;;;;;32.38;15.85;;;3.60;99.90;;;;;;5054258;28;20057;-94
2021/01/02 06:41:47;;;;;;;35.30;16.33;;;3.40;99.90;;;;;;5069158;28;20039;-93
2021/01/02 06:44:39;;;;;;;34.85;15.88;;;3.50;99.90;;;;;;5071212;28;20045;-94
2021/01/02 06:47:31;;;;;;;30.20;14.52;;;3.40;99.90;;;;;;5057774;28;20037;-94
2021/01/02 06:49:57;;;;;;;35.35;15.82;;;3.50;99.90;;;;;;5050426;28;20068;-93
2021/01/02 06:52:35;;;;;;;32.05;16.83;;;3.50;99.90;;;;;;5054461;28;20044;-92
2021/01/02 06:55:24;;;;;;;31.73;16.02;;;3.50;99.90;;;;;;5055122;28;20397;-93
2021/01/02 06:57:51;;;;;;;26.48;15.02;;;3.50;99.90;;;;;;5054535;28;20048;-95
2021/01/02 07:00:26;;;;;;;29.20;14.95;;;3.50;99.90;;;;;;5072255;28;20068;-96
2021/01/02 07:02:53;;;;;;;31.30;14.85;;;3.50;99.90;;;;;;5061157;28;20056;-96
2021/01/02 07:05:42;;;;;;;28.67;15.00;;;3.60;99.90;;;;;;5069545;28;20051;-96
2021/01/02 07:08:41;;;;;;;28.08;14.63;;;3.50;99.90;;;;;;5065950;28;20501;-96
2021/01/02 07:11:27;;;;;;;27.95;13.80;;;3.50;99.90;;;;;;5051073;28;20371;-95
2021/01/02 07:14:09;;;;;;;32.33;15.20;;;3.50;99.90;;;;;;5055921;28;20505;-95
2021/01/02 07:16:50;;;;;;;35.03;15.07;;;3.50;99.90;;;;;;5058816;28;20072;-96
2021/01/02 07:19:31;;;;;;;24.98;13.50;;;3.50;99.90;;;;;;5053092;28;20048;-95
2021/01/02 07:22:17;;;;;;;27.60;14.27;;;3.50;99.90;;;;;;5060884;28;20068;-95
2021/01/02 07:25:02;;;;;;;39.03;14.55;;;3.40;99.90;;;;;;5070259;28;20040;-95
2021/01/02 07:27:47;;;;;;;27.15;14.02;;;3.50;99.90;;;;;;5053842;28;20051;-93
2021/01/02 07:30:13;;;;;;;32.38;16.10;;;3.50;99.90;;;;;;5055258;28;20094;-96
2021/01/02 07:32:42;;;;;;;32.17;16.25;;;3.40;99.90;;;;;;5053622;28;20120;-95
2021/01/02 07:35:10;;;;;;;29.52;14.43;;;3.60;99.90;;;;;;5071502;28;20044;-96
2021/01/02 07:37:44;;;;;;;32.83;16.08;;;3.40;99.90;;;;;;5053912;28;20047;-96
2021/01/02 07:40:18;;;;;;;34.92;15.00;;;3.30;99.90;;;;;;5071266;28;20452;-96
2021/01/02 07:42:51;;;;;;;31.48;16.95;;;3.40;99.90;;;;;;5054208;28;20392;-94
2021/01/02 07:45:24;;;;;;;33.20;15.55;;;3.40;99.90;;;;;;5044669;28;20060;-96
2021/01/02 07:47:50;;;;;;;32.47;16.42;;;3.40;99.90;;;;;;5047414;28;20068;-95
2021/01/02 07:50:18;;;;;;;34.10;16.80;;;3.40;99.90;;;;;;5071511;28;20101;-96
2021/01/02 07:52:49;;;;;;;34.20;17.42;;;3.40;99.90;;;;;;5070398;28;20393;-95
2021/01/02 07:55:15;;;;;;;35.38;16.23;;;3.30;99.90;;;;;;5055163;28;20106;-95
2021/01/02 07:57:41;;;;;;;38.28;17.30;;;3.30;99.90;;;;;;5053790;28;20134;-95
2021/01/02 08:00:09;;;;;;;33.30;16.60;;;3.30;99.90;;;;;;5053053;28;20044;-95
2021/01/02 08:02:39;;;;;;;38.47;17.10;;;3.20;99.90;;;;;;5059399;28;20041;-95
2021/01/02 08:05:19;;;;;;;41.53;17.15;;;3.20;99.90;;;;;;5070858;28;20051;-95
2021/01/02 08:08:00;;;;;;;37.67;17.17;;;3.20;99.90;;;;;;5041691;28;20411;-95
2021/01/02 08:10:27;;;;;;;37.75;17.88;;;3.10;99.90;;;;;;5054333;28;20071;-94
2021/01/02 08:12:57;;;;;;;36.67;16.92;;;3.20;99.90;;;;;;5053714;28;20055;-95
2021/01/02 08:15:37;;;;;;;42.03;18.37;;;3.10;99.90;;;;;;5070891;28;20040;-95
2021/01/02 08:18:04;;;;;;;35.30;16.00;;;3.10;99.90;;;;;;5036232;28;20079;-95
2021/01/02 08:20:30;;;;;;;34.55;16.52;;;3.10;99.90;;;;;;5047579;28;20060;-92
2021/01/02 08:22:57;;;;;;;41.63;17.40;;;3.10;99.90;;;;;;5069622;28;20071;-96
2021/01/02 08:25:23;;;;;;;41.92;18.33;;;3.00;99.90;;;;;;5071082;28;20040;-95
2021/01/02 08:27:50;;;;;;;43.70;17.27;;;3.00;99.90;;;;;;5053781;28;20118;-96
2021/01/02 08:30:17;;;;;;;52.05;19.08;;;2.90;99.90;;;;;;5061478;28;20044;-95
2021/01/02 08:32:56;;;;;;;74.57;20.95;;;2.90;99.90;;;;;;5066491;28;20046;-94
2021/01/02 08:35:38;;;;;;;47.22;20.42;;;2.90;99.90;;;;;;5070440;28;20124;-94
2021/01/02 08:38:07;;;;;;;77.10;23.92;;;2.90;99.90;;;;;;5051788;28;20048;-96
2021/01/02 08:40:43;;;;;;;67.32;22.85;;;3.00;99.90;;;;;;5052962;28;20044;-95
2021/01/02 08:43:25;;;;;;;68.03;23.17;;;2.90;99.90;;;;;;5070585;28;20036;-96
2021/01/02 08:46:00;;;;;;;74.45;24.50;;;3.00;99.90;;;;;;5053529;28;20205;-96
2021/01/02 08:48:26;;;;;;;60.05;24.08;;;3.10;99.90;;;;;;5053457;28;20384;-93
2021/01/02 08:50:52;;;;;;;55.08;21.67;;;3.30;99.90;;;;;;5053106;28;20135;-94
2021/01/02 08:53:33;;;;;;;64.60;23.65;;;3.50;99.90;;;;;;5070018;28;20425;-96
2021/01/02 08:56:24;;;;;;;55.58;22.45;;;3.50;99.90;;;;;;5054055;28;20052;-96
2021/01/02 08:58:54;;;;;;;57.50;21.85;;;3.50;99.90;;;;;;5068969;28;20436;-95
2021/01/02 09:01:20;;;;;;;64.55;22.58;;;3.60;99.90;;;;;;5067745;28;20035;-89
2021/01/02 09:03:46;;;;;;;52.50;22.38;;;3.60;99.90;;;;;;5045636;28;20037;-95
2021/01/02 09:06:38;;;;;;;73.70;22.25;;;3.70;99.90;;;;;;5069365;28;20492;-94
2021/01/02 09:09:16;;;;;;;59.35;23.45;;;3.70;99.90;;;;;;5060662;28;20075;-95
2021/01/02 09:12:04;;;;;;;49.88;21.15;;;3.70;99.90;;;;;;5051387;28;20049;-93
2021/01/02 09:14:30;;;;;;;53.15;21.33;;;3.80;99.90;;;;;;5072916;28;20052;-93
2021/01/02 09:16:59;;;;;;;54.25;22.50;;;3.80;99.90;;;;;;5071168;28;20588;-95
2021/01/02 09:19:25;;;;;;;59.28;23.48;;;3.90;99.90;;;;;;5054848;28;20051;-95
2021/01/02 09:21:51;;;;;;;55.20;22.63;;;3.90;99.90;;;;;;5054850;28;20052;-93
2021/01/02 09:24:21;;;;;;;63.00;23.15;;;4.00;99.90;;;;;;5067168;28;20528;-95
2021/01/02 09:26:48;;;;;;;52.80;22.65;;;4.10;99.90;;;;;;5069050;28;20036;-95
2021/01/02 09:29:16;;;;;;;58.08;22.98;;;4.30;99.90;;;;;;5052734;28;20481;-95
2021/01/02 09:31:43;;;;;;;48.90;21.30;;;4.20;99.90;;;;;;5048679;28;20432;-94
2021/01/02 09:34:10;;;;;;;54.40;22.30;;;4.20;99.90;;;;;;5055827;28;20044;-94
2021/01/02 09:36:36;;;;;;;51.92;23.15;;;4.30;99.90;;;;;;5066767;28;20032;-93
2021/01/02 09:39:05;;;;;;;45.25;20.52;;;4.30;99.90;;;;;;5072851;28;20162;-94
2021/01/02 09:41:32;;;;;;;49.58;20.70;;;4.30;99.90;;;;;;5073021;28;20130;-95
2021/01/02 09:43:59;;;;;;;40.13;19.02;;;4.40;99.90;;;;;;5055618;28;20048;-94
2021/01/02 09:46:29;;;;;;;42.50;20.05;;;4.40;99.90;;;;;;5073148;28;20044;-94
2021/01/02 09:48:56;;;;;;;;;;;4.70;99.90;;;;;;5052785;28;20639;-94
2021/01/02 09:51:23;;;;;;;39.05;18.05;;;4.50;99.90;;;;;;5057094;28;20358;-93
2021/01/02 09:53:50;;;;;;;41.40;18.58;;;4.60;99.90;;;;;;5071061;28;20485;-96
2021/01/02 09:56:16;;;;;;;40.47;18.70;;;4.50;99.90;;;;;;5072339;28;20039;-93
2021/01/02 09:58:42;;;;;;;39.35;18.40;;;4.60;99.90;;;;;;5069855;28;20048;-91
2021/01/02 10:01:08;;;;;;;39.22;18.42;;;4.60;99.90;;;;;;5071309;28;20430;-92
2021/01/02 10:03:34;;;;;;;44.20;18.55;;;4.70;99.90;;;;;;5026293;28;20394;-92
2021/01/02 10:06:04;;;;;;;36.90;16.95;;;4.70;99.90;;;;;;5070772;28;20045;-93
2021/01/02 10:08:33;;;;;;;32.83;16.98;;;4.80;99.90;;;;;;5071001;28;20067;-92
2021/01/02 10:10:59;;;;;;;36.13;16.63;;;4.80;99.90;;;;;;5053958;28;20216;-93
2021/01/02 10:13:24;;;;;;;32.90;16.48;;;4.90;99.90;;;;;;5054577;28;20519;-93
2021/01/02 10:15:50;;;;;;;31.58;17.20;;;4.90;99.90;;;;;;5053550;28;20095;-92
2021/01/02 10:18:16;;;;;;;38.92;16.85;;;5.10;99.90;;;;;;5054233;28;20393;-93
2021/01/02 10:20:42;;;;;;;37.45;17.02;;;5.00;99.90;;;;;;5036899;28;20048;-93
2021/01/02 10:23:08;;;;;;;28.65;15.13;;;5.10;99.90;;;;;;5037891;28;20405;-92
2021/01/02 10:25:34;;;;;;;33.08;15.30;;;5.10;99.90;;;;;;5070862;28;20040;-92
2021/01/02 10:28:00;;;;;;;25.58;14.57;;;5.20;99.90;;;;;;5053162;28;20645;-92
2021/01/02 10:30:27;;;;;;;27.10;14.10;;;5.20;99.90;;;;;;5070699;28;20041;-92
2021/01/02 10:32:52;;;;;;;26.15;13.63;;;5.10;99.90;;;;;;5065632;28;20051;-92
2021/01/02 10:35:18;;;;;;;31.60;14.23;;;5.30;99.90;;;;;;5054705;28;20040;-91
2021/01/02 10:37:47;;;;;;;22.90;13.43;;;5.30;99.90;;;;;;5063168;28;20059;-90
2021/01/02 10:40:14;;;;;;;22.70;11.88;;;5.30;99.90;;;;;;5059387;28;20036;-89
2021/01/02 10:42:40;;;;;;;24.95;12.57;;;5.40;99.90;;;;;;5063310;28;20049;-90
2021/01/02 10:45:10;;;;;;;23.45;12.00;;;5.40;99.90;;;;;;5068314;28;20040;-91
2021/01/02 10:47:35;;;;;;;23.53;11.73;;;5.40;99.90;;;;;;5068882;28;20048;-91
2021/01/02 10:50:02;;;;;;;25.02;12.05;;;5.50;99.90;;;;;;5050516;28;20032;-90
2021/01/02 10:52:28;;;;;;;20.60;12.05;;;5.50;99.90;;;;;;5050149;28;20037;-90
2021/01/02 10:54:55;;;;;;;20.73;10.80;;;5.50;99.90;;;;;;5068105;28;20844;-92
2021/01/02 10:57:27;;;;;;;22.48;11.63;;;5.50;99.90;;;;;;5070224;28;20032;-90
2021/01/02 10:59:54;;;;;;;20.45;11.50;;;5.50;99.90;;;;;;5051548;28;20052;-90
2021/01/02 11:02:21;;;;;;;17.75;11.32;;;5.60;99.90;;;;;;5075457;28;20474;-90
2021/01/02 11:04:47;;;;;;;21.13;11.38;;;5.50;99.90;;;;;;5051089;28;20127;-90
2021/01/02 11:07:13;;;;;;;19.40;11.13;;;5.50;99.90;;;;;;5046490;28;20114;-89
2021/01/02 11:09:42;;;;;;;19.92;11.68;;;5.60;99.90;;;;;;5044149;28;20052;-89
2021/01/02 11:12:14;;;;;;;27.50;12.45;;;5.50;99.90;;;;;;5062184;28;20052;-93
2021/01/02 11:14:40;;;;;;;22.02;12.55;;;5.60;99.90;;;;;;5053408;28;20056;-92
2021/01/02 11:17:07;;;;;;;26.65;13.25;;;5.60;99.90;;;;;;5052101;28;20132;-93
2021/01/02 11:19:36;;;;;;;23.50;12.35;;;5.60;99.90;;;;;;5052910;28;20123;-93
2021/01/02 11:22:03;;;;;;;21.60;11.70;;;5.60;99.90;;;;;;5052638;28;20075;-93
2021/01/02 11:24:39;;;;;;;22.13;12.20;;;5.60;99.90;;;;;;5037021;28;20513;-94
2021/01/02 11:27:05;;;;;;;26.55;12.10;;;5.70;99.90;;;;;;5038968;28;20115;-89
2021/01/02 11:29:31;;;;;;;22.05;11.45;;;5.70;99.90;;;;;;5063796;28;20059;-94
2021/01/02 11:32:05;;;;;;;19.50;11.70;;;5.70;99.90;;;;;;5040594;28;20056;-92
2021/01/02 11:34:31;;;;;;;24.77;11.98;;;5.70;99.90;;;;;;5068376;28;20098;-92
2021/01/02 11:36:59;;;;;;;19.20;11.02;;;5.70;99.90;;;;;;5067088;28;20040;-91
2021/01/02 11:39:26;;;;;;;19.25;10.95;;;5.70;99.90;;;;;;5069097;28;20107;-95
2021/01/02 11:41:52;;;;;;;19.17;11.43;;;5.80;99.90;;;;;;5061641;28;20052;-95
2021/01/02 11:44:21;;;;;;;21.98;11.38;;;5.80;99.90;;;;;;5050101;28;20751;-94
2021/01/02 11:46:49;;;;;;;27.33;12.03;;;5.80;99.90;;;;;;5053308;28;20117;-91
2021/01/02 11:49:21;;;;;;;20.98;12.13;;;5.80;99.90;;;;;;5062659;28;20298;-93
2021/01/02 11:51:49;;;;;;;22.60;13.25;;;5.90;99.90;;;;;;5059374;28;20060;-91
2021/01/02 11:54:15;;;;;;;24.20;11.65;;;5.90;99.90;;;;;;5041148;28;20394;-95
2021/01/02 11:56:41;;;;;;;23.35;12.13;;;5.90;99.90;;;;;;5062881;28;20586;-95
2021/01/02 11:59:07;;;;;;;22.10;12.48;;;5.80;99.90;;;;;;5066459;28;20063;-94
2021/01/02 12:01:38;;;;;;;21.90;12.23;;;5.80;99.90;;;;;;5039965;28;20115;-91
2021/01/02 12:04:07;;;;;;;18.88;11.98;;;5.70;99.90;;;;;;5067867;28;20409;-93
2021/01/02 12:06:33;;;;;;;27.80;12.40;;;5.60;99.90;;;;;;5067541;28;20024;-93
2021/01/02 12:08:59;;;;;;;31.77;12.25;;;5.70;99.90;;;;;;5067710;28;20496;-94
2021/01/02 12:11:27;;;;;;;20.23;12.02;;;5.70;99.90;;;;;;5052148;28;20032;-95
2021/01/02 12:13:53;;;;;;;28.50;14.63;;;5.60;99.90;;;;;;5068492;28;20040;-90
2021/01/02 12:16:19;;;;;;;24.45;11.88;;;5.60;99.90;;;;;;5052011;28;20055;-96
2021/01/02 12:18:44;;;;;;;19.52;11.20;;;5.60;99.90;;;;;;5068917;28;20058;-93
2021/01/02 12:21:17;;;;;;;18.10;11.00;;;5.60;99.90;;;;;;5051504;28;20094;-95
2021/01/02 12:23:43;;;;;;;19.77;11.95;;;5.70;99.90;;;;;;5052947;28;20040;-95
2021/01/02 12:26:09;;;;;;;26.73;12.50;;;5.70;99.90;;;;;;5068177;28;20043;-95
2021/01/02 12:28:36;;;;;;;25.65;12.10;;;5.70;99.90;;;;;;5052128;28;20119;-93
2021/01/02 12:31:05;;;;;;;23.15;11.70;;;5.70;99.90;;;;;;5068560;28;20132;-93
2021/01/02 12:33:33;;;;;;;14.25;8.77;;;5.70;99.90;;;;;;5035829;28;20116;-92
2021/01/02 12:35:59;;;;;;;18.83;9.20;;;5.60;99.90;;;;;;5044332;28;20071;-90
2021/01/02 12:38:25;;;;;;;18.88;9.48;;;5.50;99.90;;;;;;5067383;28;20052;-89
2021/01/02 12:40:51;;;;;;;18.50;8.93;;;5.40;99.90;;;;;;5067412;28;20044;-92
2021/01/02 12:43:17;;;;;;;15.73;9.38;;;5.50;99.90;;;;;;5066260;28;20035;-91
2021/01/02 12:45:43;;;;;;;20.90;9.70;;;5.40;99.90;;;;;;5032387;28;20048;-92
2021/01/02 12:48:09;;;;;;;16.10;9.65;;;5.40;99.90;;;;;;5049440;28;20028;-93
2021/01/02 12:50:35;;;;;;;15.13;9.80;;;5.50;99.90;;;;;;5067722;28;20056;-92
2021/01/02 12:53:00;;;;;;;15.85;9.77;;;5.50;99.90;;;;;;5066168;28;20818;-91
2021/01/02 12:55:26;;;;;;;17.30;10.38;;;5.50;99.90;;;;;;5057640;28;20135;-92
2021/01/02 12:57:52;;;;;;;18.08;10.50;;;5.60;99.90;;;;;;5062158;28;20078;-93
2021/01/02 13:00:19;;;;;;;16.27;8.98;;;5.60;99.90;;;;;;5033928;28;20049;-90